createdAt,value
2023-06-11T00:02:34.249Z,17.80
2023-06-11T00:05:05.384Z,17.80
2023-06-11T00:07:34.253Z,17.70
2023-06-11T00:10:04.594Z,17.80
2023-06-11T00:12:35.224Z,17.70
2023-06-11T00:15:04.137Z,17.60
2023-06-11T00:17:34.906Z,17.50
2023-06-11T00:20:05.139Z,17.50
2023-06-11T00:22:34.228Z,17.50
2023-06-11T00:25:02.995Z,17.40
2023-06-11T00:27:31.741Z,17.30
2023-06-11T00:30:02.613Z,17.40
2023-06-11T00:32:31.976Z,17.30
2023-06-11T00:35:02.507Z,17.20
2023-06-11T00:37:33.580Z,17.20
2023-06-11T00:40:02.675Z,17.20
2023-06-11T00:42:31.588Z,17.20
2023-06-11T00:45:02.648Z,17.10
2023-06-11T00:47:32.002Z,17.00
2023-06-11T00:50:03.573Z,16.90
2023-06-11T00:52:32.472Z,17.10
2023-06-11T00:55:01.949Z,16.90
2023-06-11T00:57:30.864Z,16.90
2023-06-11T01:00:02.041Z,17.00
2023-06-11T01:02:40.183Z,16.90
2023-06-11T01:05:14.085Z,16.80
2023-06-11T01:07:51.606Z,16.70
2023-06-11T01:10:28.025Z,16.50
2023-06-11T01:12:58.945Z,16.50
2023-06-11T01:15:28.758Z,16.60
2023-06-11T01:18:06.837Z,16.60
2023-06-11T01:20:46.441Z,16.50
2023-06-11T01:23:32.522Z,16.50
2023-06-11T01:26:43.570Z,16.50
2023-06-11T01:29:17.928Z,16.50
2023-06-11T01:31:47.638Z,16.50
2023-06-11T01:34:18.358Z,16.40
2023-06-11T01:36:49.645Z,16.20
2023-06-11T01:39:20.345Z,16.20
2023-06-11T01:42:01.260Z,16.30
2023-06-11T01:44:33.642Z,16.20
2023-06-11T01:47:02.607Z,16.20
2023-06-11T01:49:32.093Z,16.00
2023-06-11T01:52:00.944Z,16.10
2023-06-11T01:54:29.913Z,16.10
2023-06-11T01:56:58.750Z,16.00
2023-06-11T01:59:28.025Z,15.90
2023-06-11T02:01:58.364Z,15.80
2023-06-11T02:04:27.324Z,15.80
2023-06-11T02:06:56.729Z,15.80
2023-06-11T02:09:25.619Z,15.80
2023-06-11T02:11:54.706Z,15.90
2023-06-11T02:14:23.593Z,15.80
2023-06-11T02:16:52.889Z,15.80
2023-06-11T02:19:23.668Z,15.70
2023-06-11T02:21:52.636Z,15.60
2023-06-11T02:24:21.716Z,15.60
2023-06-11T02:26:50.695Z,15.60
2023-06-11T02:29:19.602Z,15.50
2023-06-11T02:31:48.749Z,15.50
2023-06-11T02:34:19.332Z,15.50
2023-06-11T02:36:50.269Z,15.50
2023-06-11T02:39:19.407Z,15.40
2023-06-11T02:41:48.265Z,15.40
2023-06-11T02:44:17.057Z,15.30
2023-06-11T02:46:45.874Z,15.30
2023-06-11T02:49:14.900Z,15.40
2023-06-11T02:51:43.737Z,15.30
2023-06-11T02:54:13.927Z,15.10
2023-06-11T02:56:43.004Z,15.20
2023-06-11T02:59:11.887Z,15.00
2023-06-11T03:01:41.768Z,15.00
2023-06-11T03:04:11.945Z,15.00
2023-06-11T03:06:41.737Z,15.00
2023-06-11T03:09:10.980Z,15.00
2023-06-11T03:11:41.272Z,14.90
2023-06-11T03:14:10.197Z,15.00
2023-06-11T03:16:39.193Z,14.80
2023-06-11T03:19:08.121Z,14.80
2023-06-11T03:21:37.594Z,14.80
2023-06-11T03:24:07.849Z,14.80
2023-06-11T03:26:36.864Z,14.70
2023-06-11T03:29:07.078Z,14.70
2023-06-11T03:31:45.136Z,14.70
2023-06-11T03:34:14.225Z,14.60
2023-06-11T03:36:43.031Z,14.70
2023-06-11T03:39:18.112Z,14.60
2023-06-11T03:41:49.622Z,14.60
2023-06-11T03:44:21.176Z,14.60
2023-06-11T03:46:50.308Z,14.60
2023-06-11T03:49:19.251Z,14.50
2023-06-11T03:51:48.229Z,14.50
2023-06-11T03:54:17.185Z,14.50
2023-06-11T03:56:46.603Z,14.60
2023-06-11T03:59:16.091Z,14.40
2023-06-11T04:01:47.273Z,14.40
2023-06-11T04:04:17.392Z,14.30
2023-06-11T04:06:48.289Z,14.30
2023-06-11T04:09:24.446Z,14.30
2023-06-11T04:11:53.546Z,14.40
2023-06-11T04:14:23.537Z,14.40
2023-06-11T04:16:54.437Z,14.40
2023-06-11T04:19:23.466Z,14.40
2023-06-11T04:21:54.452Z,14.30
2023-06-11T04:24:25.731Z,14.30
2023-06-11T04:26:54.888Z,14.30
2023-06-11T04:29:24.252Z,14.30
2023-06-11T04:32:22.572Z,14.20
2023-06-11T04:34:51.670Z,14.30
2023-06-11T04:37:21.486Z,14.20
2023-06-11T04:39:52.211Z,14.30
2023-06-11T04:42:21.613Z,14.40
2023-06-11T04:44:51.405Z,14.30
2023-06-11T04:47:23.940Z,14.30
2023-06-11T04:49:55.687Z,14.40
2023-06-11T04:52:27.937Z,14.40
2023-06-11T04:54:57.464Z,14.40
2023-06-11T04:57:26.859Z,14.30
2023-06-11T04:59:57.504Z,14.30
2023-06-11T05:02:29.772Z,14.30
2023-06-11T05:04:58.885Z,14.30
2023-06-11T05:07:28.867Z,14.30
2023-06-11T05:09:58.187Z,14.40
2023-06-11T05:12:27.497Z,14.40
2023-06-11T05:14:57.864Z,14.40
2023-06-11T05:17:30.462Z,14.40
2023-06-11T05:20:00.489Z,14.50
2023-06-11T05:22:31.363Z,14.40
2023-06-11T05:25:01.943Z,14.40
2023-06-11T05:27:35.318Z,14.50
2023-06-11T05:30:10.406Z,14.50
2023-06-11T05:32:45.678Z,14.40
2023-06-11T05:35:19.917Z,14.50
2023-06-11T05:37:50.687Z,14.60
2023-06-11T05:40:21.103Z,14.60
2023-06-11T05:42:50.273Z,14.70
2023-06-11T05:45:20.822Z,14.70
2023-06-11T05:47:51.525Z,14.80
2023-06-11T05:50:21.717Z,14.80
2023-06-11T05:52:51.721Z,14.90
2023-06-11T05:55:21.757Z,14.90
2023-06-11T05:57:50.869Z,15.00
2023-06-11T06:00:21.136Z,15.00
2023-06-11T06:02:56.787Z,15.10
2023-06-11T06:05:31.114Z,15.10
2023-06-11T06:08:00.059Z,15.10
2023-06-11T06:10:28.937Z,15.20
2023-06-11T06:12:58.073Z,15.30
2023-06-11T06:15:27.409Z,15.30
2023-06-11T06:17:58.121Z,15.40
2023-06-11T06:20:39.520Z,15.50
2023-06-11T06:23:08.307Z,15.50
2023-06-11T06:25:39.590Z,15.60
2023-06-11T06:28:11.803Z,15.70
2023-06-11T06:30:41.213Z,15.70
2023-06-11T06:33:13.330Z,15.80
2023-06-11T06:35:42.236Z,15.80
2023-06-11T06:38:11.166Z,15.90
2023-06-11T06:40:40.422Z,16.00
2023-06-11T06:43:09.665Z,16.00
2023-06-11T06:45:56.425Z,16.10
2023-06-11T06:48:39.355Z,16.20
2023-06-11T06:51:26.781Z,16.20
2023-06-11T06:53:55.643Z,16.30
2023-06-11T06:57:06.811Z,16.30
2023-06-11T06:59:35.809Z,16.40
2023-06-11T07:02:07.336Z,16.50
2023-06-11T07:04:41.424Z,16.50
2023-06-11T07:07:10.580Z,16.50
2023-06-11T07:09:41.113Z,16.60
2023-06-11T07:12:12.052Z,16.60
2023-06-11T07:14:41.105Z,16.70
2023-06-11T07:17:10.083Z,16.80
2023-06-11T07:23:13.885Z,17.00
2023-06-11T07:25:45.837Z,17.00
2023-06-11T07:28:15.587Z,17.10
2023-06-11T07:30:44.464Z,17.20
2023-06-11T07:33:13.683Z,17.30
2023-06-11T07:35:48.177Z,17.30
2023-06-11T07:38:21.978Z,17.40
2023-06-11T07:40:50.900Z,17.60
2023-06-11T07:43:19.877Z,17.60
2023-06-11T07:45:49.990Z,17.80
2023-06-11T07:48:21.387Z,17.80
2023-06-11T07:50:54.913Z,18.00
2023-06-11T07:53:26.778Z,17.90
2023-06-11T07:55:58.379Z,18.20
2023-06-11T07:58:27.528Z,18.20
2023-06-11T08:00:56.404Z,18.20
2023-06-11T08:03:25.270Z,18.40
2023-06-11T08:05:55.556Z,18.40
2023-06-11T08:08:24.319Z,18.50
2023-06-11T08:10:53.180Z,18.60
2023-06-11T08:13:23.132Z,18.80
2023-06-11T08:15:51.964Z,18.80
2023-06-11T08:18:20.949Z,18.80
2023-06-11T08:20:52.281Z,18.90
2023-06-11T08:23:28.373Z,19.00
2023-06-11T08:26:00.226Z,19.10
2023-06-11T08:28:29.490Z,19.20
2023-06-11T08:30:59.442Z,19.20
2023-06-11T08:33:28.398Z,19.30
2023-06-11T08:35:57.150Z,19.30
2023-06-11T08:38:29.452Z,19.40
2023-06-11T08:40:58.463Z,19.50
2023-06-11T08:43:27.343Z,19.60
2023-06-11T08:45:56.220Z,19.60
2023-06-11T08:48:30.350Z,19.80
2023-06-11T08:51:02.982Z,19.90
2023-06-11T08:53:33.335Z,20.00
2023-06-11T08:56:02.325Z,20.20
2023-06-11T08:58:35.957Z,20.30
2023-06-11T09:01:11.478Z,20.40
2023-06-11T09:03:45.073Z,20.40
2023-06-11T09:06:14.146Z,20.40
2023-06-11T09:08:44.307Z,20.40
2023-06-11T09:11:17.468Z,20.60
2023-06-11T09:13:46.952Z,20.70
2023-06-11T09:16:15.706Z,20.80
2023-06-11T09:18:45.995Z,20.90
2023-06-11T09:21:16.308Z,21.00
2023-06-11T09:23:48.042Z,21.10
2023-06-11T09:26:19.935Z,21.20
2023-06-11T09:28:51.713Z,21.30
2023-06-11T09:31:23.478Z,21.40
2023-06-11T09:33:55.525Z,21.40
2023-06-11T09:36:27.397Z,21.80
2023-06-11T09:38:57.889Z,21.80
2023-06-11T09:41:28.408Z,21.80
2023-06-11T09:44:12.972Z,21.90
2023-06-11T09:46:43.071Z,22.20
2023-06-11T09:49:14.468Z,22.30
2023-06-11T09:51:44.858Z,22.50
2023-06-11T09:54:15.990Z,22.80
2023-06-11T09:56:50.793Z,23.00
2023-06-11T09:59:21.983Z,23.00
2023-06-11T10:01:53.361Z,23.10
2023-06-11T10:04:22.619Z,23.30
2023-06-11T10:06:53.328Z,23.20
2023-06-11T10:09:24.340Z,23.30
2023-06-11T10:11:56.383Z,23.50
2023-06-11T10:14:26.576Z,23.10
2023-06-11T10:16:57.613Z,22.80
2023-06-11T10:19:36.248Z,22.90
2023-06-11T10:22:05.870Z,23.50
2023-06-11T10:24:36.296Z,23.60
2023-06-11T10:27:13.838Z,23.80
2023-06-11T10:29:44.626Z,24.00
2023-06-11T10:32:18.310Z,24.40
2023-06-11T10:34:49.973Z,24.50
2023-06-11T10:37:32.577Z,24.70
2023-06-11T10:40:02.799Z,24.70
2023-06-11T10:42:39.549Z,24.70
2023-06-11T10:45:10.512Z,24.90
2023-06-11T10:47:45.511Z,24.50
2023-06-11T10:50:16.940Z,24.30
2023-06-11T10:52:52.559Z,24.40
2023-06-11T10:55:26.250Z,24.50
2023-06-11T10:57:56.008Z,24.80
2023-06-11T11:00:34.656Z,24.70
2023-06-11T11:03:06.989Z,24.40
2023-06-11T11:05:36.171Z,24.30
2023-06-11T11:08:05.013Z,24.50
2023-06-11T11:10:35.602Z,24.50
2023-06-11T11:13:05.551Z,24.40
2023-06-11T11:15:34.275Z,24.80
2023-06-11T11:18:05.183Z,25.20
2023-06-11T11:20:34.682Z,25.20
2023-06-11T11:23:03.674Z,24.90
2023-06-11T11:25:33.589Z,24.60
2023-06-11T11:28:03.760Z,24.90
2023-06-11T11:30:32.512Z,25.40
2023-06-11T11:33:01.770Z,25.60
2023-06-11T11:35:31.041Z,25.60
2023-06-11T11:37:59.899Z,25.10
2023-06-11T11:40:30.454Z,24.80
2023-06-11T11:43:00.037Z,24.90
2023-06-11T11:45:35.919Z,25.20
2023-06-11T11:48:05.818Z,25.50
2023-06-11T11:50:35.753Z,25.80
2023-06-11T11:53:07.220Z,26.00
2023-06-11T11:55:51.660Z,26.30
2023-06-11T11:58:25.347Z,26.60
2023-06-11T12:00:58.010Z,26.40
2023-06-11T12:03:27.019Z,26.50
2023-06-11T12:06:01.364Z,26.50
2023-06-11T12:08:31.752Z,26.60
2023-06-11T12:11:02.292Z,26.90
2023-06-11T12:13:31.167Z,27.00
2023-06-11T12:16:04.561Z,27.10
2023-06-11T12:18:34.408Z,27.00
2023-06-11T12:21:03.345Z,27.00
2023-06-11T12:23:32.109Z,27.00
2023-06-11T12:26:02.611Z,27.00
2023-06-11T12:31:31.697Z,27.10
2023-06-11T12:34:00.442Z,26.80
2023-06-11T12:36:29.196Z,27.00
2023-06-11T12:38:57.864Z,27.20
2023-06-11T12:41:27.053Z,27.50
2023-06-11T12:43:55.824Z,27.50
2023-06-11T12:46:24.513Z,27.70
2023-06-11T12:48:54.713Z,28.00
2023-06-11T12:51:23.926Z,28.10
2023-06-11T12:53:53.991Z,28.20
2023-06-11T12:56:24.297Z,28.20
2023-06-11T12:58:53.198Z,28.10
2023-06-11T13:01:22.231Z,28.20
2023-06-11T13:03:51.074Z,28.20
2023-06-11T13:06:21.625Z,28.20
2023-06-11T13:08:51.712Z,28.50
2023-06-11T13:11:20.486Z,28.30
2023-06-11T13:13:49.190Z,28.50
2023-06-11T13:16:18.021Z,28.80
2023-06-11T13:18:47.273Z,28.90
2023-06-11T13:21:17.551Z,29.20
2023-06-11T13:23:47.740Z,29.30
2023-06-11T13:26:16.430Z,29.40
2023-06-11T13:28:45.266Z,29.30
2023-06-11T13:31:14.540Z,29.10
2023-06-11T13:33:43.885Z,29.20
2023-06-11T13:36:12.886Z,29.40
2023-06-11T13:38:42.652Z,29.60
2023-06-11T13:41:12.845Z,29.80
2023-06-11T13:43:41.548Z,29.90
2023-06-11T13:46:10.955Z,29.60
2023-06-11T13:48:39.693Z,29.10
2023-06-11T13:51:08.793Z,29.40
2023-06-11T13:53:37.514Z,29.60
2023-06-11T13:56:06.692Z,30.10
2023-06-11T13:58:36.926Z,30.40
2023-06-11T14:01:05.773Z,30.60
2023-06-11T14:03:34.570Z,30.80
2023-06-11T14:06:05.395Z,30.90
2023-06-11T14:08:34.097Z,30.90
2023-06-11T14:11:02.909Z,31.00
2023-06-11T14:13:31.597Z,31.00
2023-06-11T14:16:01.888Z,31.20
2023-06-11T14:18:30.725Z,31.30
2023-06-11T14:20:59.517Z,31.10
2023-06-11T14:23:28.416Z,31.30
2023-06-11T14:25:57.136Z,31.40
2023-06-11T14:28:25.869Z,31.70
2023-06-11T14:30:56.098Z,31.70
2023-06-11T14:33:26.739Z,31.40
2023-06-11T14:35:55.715Z,31.50
2023-06-11T14:38:24.384Z,31.50
2023-06-11T14:40:53.231Z,31.90
2023-06-11T14:43:24.218Z,32.00
2023-06-11T14:45:53.281Z,32.20
2023-06-11T14:48:23.147Z,32.30
2023-06-11T14:50:53.533Z,32.20
2023-06-11T14:53:22.921Z,32.20
2023-06-11T14:55:56.351Z,32.30
2023-06-11T14:58:25.350Z,32.10
2023-06-11T15:00:54.142Z,31.80
2023-06-11T15:03:22.917Z,31.20
2023-06-11T15:05:53.313Z,31.20
2023-06-11T15:08:22.002Z,31.00
2023-06-11T15:10:50.798Z,30.60
2023-06-11T15:13:19.449Z,30.50
2023-06-11T15:15:48.458Z,30.50
2023-06-11T15:18:17.180Z,30.60
2023-06-11T15:20:46.215Z,30.50
2023-06-11T15:23:16.385Z,30.40
2023-06-11T15:25:45.368Z,30.40
2023-06-11T15:28:14.186Z,30.30
2023-06-11T15:30:42.971Z,30.00
2023-06-11T15:33:11.871Z,29.80
2023-06-11T15:35:42.001Z,29.90
2023-06-11T15:38:11.257Z,30.00
2023-06-11T15:40:41.435Z,29.70
2023-06-11T15:43:12.108Z,29.60
2023-06-11T15:45:40.853Z,29.60
2023-06-11T15:48:09.613Z,29.80
2023-06-11T15:50:38.567Z,29.60
2023-06-11T15:53:07.237Z,29.40
2023-06-11T15:55:35.963Z,29.40
2023-06-11T15:58:08.891Z,29.40
2023-06-11T16:00:37.832Z,29.40
2023-06-11T16:03:06.821Z,29.10
2023-06-11T16:05:35.687Z,29.20
2023-06-11T16:08:04.580Z,28.80
2023-06-11T16:10:34.092Z,29.00
2023-06-11T16:13:11.897Z,28.80
2023-06-11T16:15:47.811Z,28.90
2023-06-11T16:18:21.274Z,28.90
2023-06-11T16:20:51.183Z,28.60
2023-06-11T16:23:20.389Z,28.40
2023-06-11T16:25:58.186Z,28.40
2023-06-11T16:28:29.643Z,28.50
2023-06-11T16:30:58.512Z,28.60
2023-06-11T16:33:30.874Z,28.30
2023-06-11T16:36:07.644Z,27.80
2023-06-11T16:38:36.475Z,27.80
2023-06-11T16:41:06.375Z,27.90
2023-06-11T16:43:36.730Z,28.20
2023-06-11T16:46:05.904Z,28.00
2023-06-11T16:48:35.794Z,27.80
2023-06-11T16:51:04.674Z,27.50
2023-06-11T16:53:33.474Z,27.60
2023-06-11T16:56:02.567Z,27.50
2023-06-11T16:58:32.745Z,27.50
2023-06-11T17:01:16.431Z,27.60
2023-06-11T17:03:48.046Z,27.70
2023-06-11T17:06:18.016Z,27.70
2023-06-11T17:08:46.970Z,27.70
2023-06-11T17:11:15.696Z,27.50
2023-06-11T17:13:44.383Z,27.30
2023-06-11T17:16:14.898Z,27.10
2023-06-11T17:18:43.880Z,27.10
2023-06-11T17:21:13.675Z,26.90
2023-06-11T17:23:45.172Z,27.00
2023-06-11T17:26:16.435Z,27.00
2023-06-11T17:28:49.608Z,26.90
2023-06-11T17:31:21.099Z,26.80
2023-06-11T17:33:50.229Z,26.70
2023-06-11T17:36:19.883Z,26.70
2023-06-11T17:38:48.720Z,26.70
2023-06-11T17:41:17.961Z,26.60
2023-06-11T17:43:47.460Z,26.50
2023-06-11T17:46:21.042Z,26.50
2023-06-11T17:48:51.249Z,26.50
2023-06-11T17:51:20.416Z,26.50
2023-06-11T17:53:49.882Z,26.50
2023-06-11T17:56:19.986Z,26.40
2023-06-11T17:58:49.081Z,26.30
2023-06-11T18:01:21.651Z,26.20
2023-06-11T18:03:52.215Z,26.20
2023-06-11T18:06:54.238Z,26.10
2023-06-11T18:09:23.026Z,26.00
2023-06-11T18:11:53.187Z,26.20
2023-06-11T18:14:23.657Z,26.20
2023-06-11T18:16:56.179Z,26.20
2023-06-11T18:19:27.132Z,26.20
2023-06-11T18:21:56.069Z,26.10
2023-06-11T18:24:29.404Z,26.10
2023-06-11T18:26:59.376Z,26.00
2023-06-11T18:29:29.317Z,25.90
2023-06-11T18:32:02.157Z,25.80
2023-06-11T18:34:32.453Z,25.60
2023-06-11T18:37:01.365Z,25.70
2023-06-11T18:39:31.412Z,25.60
2023-06-11T18:42:14.976Z,25.60
2023-06-11T18:44:45.655Z,25.50
2023-06-11T18:47:18.400Z,25.50
2023-06-11T18:49:47.492Z,25.40
2023-06-11T18:52:17.933Z,25.30
2023-06-11T18:54:48.388Z,25.30
2023-06-11T18:57:20.912Z,25.30
2023-06-11T18:59:49.654Z,25.10
2023-06-11T19:02:22.371Z,25.20
2023-06-11T19:04:51.187Z,25.10
2023-06-11T19:07:20.375Z,25.10
2023-06-11T19:09:49.134Z,25.00
2023-06-11T19:12:17.841Z,24.80
2023-06-11T19:14:48.567Z,24.80
2023-06-11T19:17:18.650Z,24.70
2023-06-11T19:19:48.847Z,24.60
2023-06-11T19:22:17.654Z,24.60
2023-06-11T19:24:46.477Z,24.50
2023-06-11T19:32:36.419Z,24.30
2023-06-11T19:35:08.342Z,24.00
2023-06-11T19:37:37.116Z,24.00
2023-06-11T19:40:08.149Z,23.90
2023-06-11T19:42:37.102Z,23.80
2023-06-11T19:45:10.201Z,23.70
2023-06-11T19:47:39.384Z,23.60
2023-06-11T19:50:12.383Z,23.30
2023-06-11T19:53:24.748Z,23.20
2023-06-11T19:56:20.162Z,23.30
2023-06-11T19:58:49.247Z,23.20
2023-06-11T20:01:18.561Z,23.10
2023-06-11T20:03:47.391Z,23.10
2023-06-11T20:06:18.188Z,23.10
2023-06-11T20:08:51.757Z,22.90
2023-06-11T20:11:22.227Z,22.90
2023-06-11T20:13:51.110Z,22.90
2023-06-11T20:16:19.881Z,22.90
2023-06-11T20:18:48.745Z,22.90
2023-06-11T20:21:37.278Z,22.60
2023-06-11T20:24:08.736Z,22.60
2023-06-11T20:26:44.179Z,22.50
2023-06-11T20:29:13.770Z,22.50
2023-06-11T20:31:42.782Z,22.50
2023-06-11T20:36:33.730Z,22.40
2023-06-11T20:45:27.551Z,22.10
2023-06-11T20:48:04.580Z,22.10
2023-06-11T20:50:33.502Z,22.00
2023-06-11T20:53:02.631Z,21.90
2023-06-11T20:55:32.802Z,21.90
2023-06-11T20:58:10.914Z,21.90
2023-06-11T21:00:40.056Z,21.80
2023-06-11T21:03:37.454Z,21.60
2023-06-11T21:07:05.571Z,21.60
2023-06-11T21:09:34.388Z,21.50
2023-06-11T21:12:06.703Z,21.40
2023-06-11T21:14:35.446Z,21.30
2023-06-11T21:17:04.420Z,21.20
2023-06-11T21:19:33.395Z,21.10
2023-06-11T21:22:02.293Z,21.10
2023-06-11T21:24:31.099Z,21.00
2023-06-11T21:30:46.332Z,20.90
2023-06-11T21:36:08.832Z,20.70
2023-06-11T21:38:37.700Z,20.70
2023-06-11T21:41:44.744Z,20.70
2023-06-11T21:44:16.959Z,20.60
2023-06-11T21:47:15.711Z,20.50
2023-06-11T21:50:11.059Z,20.50
2023-06-11T21:55:43.884Z,20.30
2023-06-11T22:01:41.469Z,20.10
2023-06-11T22:04:20.832Z,19.90
2023-06-11T22:06:54.101Z,20.00
2023-06-11T22:09:36.201Z,19.80
2023-06-11T22:12:07.600Z,19.80
2023-06-11T22:14:38.092Z,19.70
2023-06-11T22:17:08.791Z,19.80
2023-06-11T22:19:39.879Z,19.70
2023-06-11T22:22:12.199Z,19.60
2023-06-11T22:24:41.788Z,19.60
2023-06-11T22:27:13.402Z,19.50
2023-06-11T22:29:42.346Z,19.50
2023-06-11T22:32:16.531Z,19.50
2023-06-11T22:34:46.726Z,19.40
2023-06-11T22:37:15.497Z,19.30
2023-06-11T22:39:44.279Z,19.10
2023-06-11T22:42:13.379Z,19.10
2023-06-11T22:44:42.468Z,19.10
2023-06-11T22:47:12.117Z,19.00
2023-06-11T22:49:41.474Z,18.90
2023-06-11T22:52:12.688Z,18.80
2023-06-11T22:54:41.461Z,18.90
2023-06-11T22:57:10.192Z,18.80
2023-06-11T22:59:38.918Z,18.80
2023-06-11T23:02:07.774Z,18.60
2023-06-11T23:04:36.653Z,18.60
2023-06-11T23:07:06.121Z,18.50
2023-06-11T23:09:36.300Z,18.50
2023-06-11T23:12:06.228Z,18.50
2023-06-11T23:14:35.225Z,18.50
2023-06-11T23:17:05.111Z,18.40
2023-06-11T23:19:34.528Z,18.40
2023-06-11T23:22:03.336Z,18.40
2023-06-11T23:24:32.607Z,18.30
2023-06-11T23:27:04.410Z,18.30
2023-06-11T23:29:33.864Z,18.20
2023-06-11T23:32:02.972Z,18.30
2023-06-11T23:34:31.881Z,18.10
2023-06-11T23:37:00.992Z,17.90
2023-06-11T23:39:30.493Z,18.00
2023-06-11T23:41:59.272Z,18.00
2023-06-11T23:44:29.716Z,17.90
2023-06-11T23:46:58.425Z,17.90
2023-06-11T23:49:27.131Z,17.80
2023-06-11T23:51:56.303Z,17.70
2023-06-11T23:54:25.275Z,17.60
2023-06-11T23:56:54.573Z,17.60
2023-06-11T23:59:23.381Z,17.60
